sensor_id;sensor_type;location;lat;lon;timestamp;P1;durP1;ratioP1;P2;durP2;ratioP2
2698;SDS011;1359;51.798;12.174;2023-02-12T00:02:04;28.57;;;17.40;;
2698;SDS011;1359;51.798;12.174;2023-02-12T00:04:29;26.07;;;14.93;;
2698;SDS011;1359;51.798;12.174;2023-02-12T00:06:54;23.73;;;17.73;;
2698;SDS011;1359;51.798;12.174;2023-02-12T00:09:20;22.57;;;14.67;;
2698;SDS011;1359;51.798;12.174;2023-02-12T00:11:45;21.03;;;14.60;;
2698;SDS011;1359;51.798;12.174;2023-02-12T00:14:10;19.50;;;14.40;;
2698;SDS011;1359;51.798;12.174;2023-02-12T00:16:36;20.13;;;15.13;;
2698;SDS011;1359;51.798;12.174;2023-02-12T00:19:01;21.33;;;14.70;;
2698;SDS011;1359;51.798;12.174;2023-02-12T00:21:26;17.83;;;13.63;;
2698;SDS011;1359;51.798;12.174;2023-02-12T00:23:52;21.97;;;15.83;;
2698;SDS011;1359;51.798;12.174;2023-02-12T00:26:18;19.83;;;14.10;;
2698;SDS011;1359;51.798;12.174;2023-02-12T00:28:47;18.93;;;13.40;;
2698;SDS011;1359;51.798;12.174;2023-02-12T00:31:14;22.33;;;14.63;;
2698;SDS011;1359;51.798;12.174;2023-02-12T00:33:39;21.43;;;14.73;;
2698;SDS011;1359;51.798;12.174;2023-02-12T00:36:05;22.23;;;14.73;;
2698;SDS011;1359;51.798;12.174;2023-02-12T00:38:30;19.50;;;13.97;;
2698;SDS011;1359;51.798;12.174;2023-02-12T00:40:56;18.60;;;13.87;;
2698;SDS011;1359;51.798;12.174;2023-02-12T00:43:21;21.87;;;15.63;;
2698;SDS011;1359;51.798;12.174;2023-02-12T00:45:46;18.33;;;13.03;;
2698;SDS011;1359;51.798;12.174;2023-02-12T00:48:13;21.77;;;15.27;;
2698;SDS011;1359;51.798;12.174;2023-02-12T00:50:40;19.00;;;14.20;;
2698;SDS011;1359;51.798;12.174;2023-02-12T00:53:06;24.60;;;14.67;;
2698;SDS011;1359;51.798;12.174;2023-02-12T00:55:31;18.43;;;14.33;;
2698;SDS011;1359;51.798;12.174;2023-02-12T00:57:58;21.80;;;15.23;;
2698;SDS011;1359;51.798;12.174;2023-02-12T01:00:23;24.87;;;15.57;;
2698;SDS011;1359;51.798;12.174;2023-02-12T01:02:49;23.33;;;16.00;;
2698;SDS011;1359;51.798;12.174;2023-02-12T01:05:14;19.13;;;13.80;;
2698;SDS011;1359;51.798;12.174;2023-02-12T01:07:39;21.60;;;15.80;;
2698;SDS011;1359;51.798;12.174;2023-02-12T01:10:05;17.40;;;14.10;;
2698;SDS011;1359;51.798;12.174;2023-02-12T01:12:31;20.80;;;14.30;;
2698;SDS011;1359;51.798;12.174;2023-02-12T01:14:56;21.43;;;14.67;;
2698;SDS011;1359;51.798;12.174;2023-02-12T01:17:21;21.57;;;15.30;;
2698;SDS011;1359;51.798;12.174;2023-02-12T01:19:47;21.77;;;15.57;;
2698;SDS011;1359;51.798;12.174;2023-02-12T01:22:14;21.53;;;15.83;;
2698;SDS011;1359;51.798;12.174;2023-02-12T01:24:41;25.40;;;16.13;;
2698;SDS011;1359;51.798;12.174;2023-02-12T01:27:06;22.23;;;15.30;;
2698;SDS011;1359;51.798;12.174;2023-02-12T01:29:32;21.30;;;14.90;;
2698;SDS011;1359;51.798;12.174;2023-02-12T01:31:59;21.17;;;13.77;;
2698;SDS011;1359;51.798;12.174;2023-02-12T01:34:25;20.60;;;15.13;;
2698;SDS011;1359;51.798;12.174;2023-02-12T01:36:50;22.27;;;15.90;;
2698;SDS011;1359;51.798;12.174;2023-02-12T01:39:16;26.20;;;16.27;;
2698;SDS011;1359;51.798;12.174;2023-02-12T01:41:43;20.03;;;13.43;;
2698;SDS011;1359;51.798;12.174;2023-02-12T01:46:36;24.87;;;14.73;;
2698;SDS011;1359;51.798;12.174;2023-02-12T01:49:03;21.17;;;14.13;;
2698;SDS011;1359;51.798;12.174;2023-02-12T01:51:29;21.93;;;15.57;;
2698;SDS011;1359;51.798;12.174;2023-02-12T01:53:56;20.07;;;14.07;;
2698;SDS011;1359;51.798;12.174;2023-02-12T01:56:24;21.73;;;15.60;;
2698;SDS011;1359;51.798;12.174;2023-02-12T01:58:50;20.40;;;15.17;;
2698;SDS011;1359;51.798;12.174;2023-02-12T02:01:20;20.50;;;14.50;;
2698;SDS011;1359;51.798;12.174;2023-02-12T02:03:47;21.13;;;14.07;;
2698;SDS011;1359;51.798;12.174;2023-02-12T02:06:17;20.57;;;14.37;;
2698;SDS011;1359;51.798;12.174;2023-02-12T02:08:44;20.03;;;13.90;;
2698;SDS011;1359;51.798;12.174;2023-02-12T02:11:09;17.83;;;13.20;;
2698;SDS011;1359;51.798;12.174;2023-02-12T02:13:57;22.00;;;15.63;;
2698;SDS011;1359;51.798;12.174;2023-02-12T02:16:42;21.60;;;14.33;;
2698;SDS011;1359;51.798;12.174;2023-02-12T02:19:17;22.17;;;14.20;;
2698;SDS011;1359;51.798;12.174;2023-02-12T02:21:50;21.00;;;14.30;;
2698;SDS011;1359;51.798;12.174;2023-02-12T02:24:33;24.07;;;14.53;;
2698;SDS011;1359;51.798;12.174;2023-02-12T02:27:11;18.07;;;13.60;;
2698;SDS011;1359;51.798;12.174;2023-02-12T02:37:25;19.27;;;13.57;;
2698;SDS011;1359;51.798;12.174;2023-02-12T02:40:34;23.30;;;14.60;;
2698;SDS011;1359;51.798;12.174;2023-02-12T02:42:49;18.10;;;15.20;;
2698;SDS011;1359;51.798;12.174;2023-02-12T02:45:21;19.63;;;14.30;;
2698;SDS011;1359;51.798;12.174;2023-02-12T02:47:53;20.40;;;15.30;;
2698;SDS011;1359;51.798;12.174;2023-02-12T02:50:20;21.47;;;15.00;;
2698;SDS011;1359;51.798;12.174;2023-02-12T02:55:19;18.17;;;13.90;;
2698;SDS011;1359;51.798;12.174;2023-02-12T02:57:51;20.07;;;15.10;;
2698;SDS011;1359;51.798;12.174;2023-02-12T03:00:28;19.47;;;14.90;;
2698;SDS011;1359;51.798;12.174;2023-02-12T03:02:58;20.80;;;15.53;;
2698;SDS011;1359;51.798;12.174;2023-02-12T03:05:26;20.40;;;14.47;;
2698;SDS011;1359;51.798;12.174;2023-02-12T03:07:54;21.53;;;16.00;;
2698;SDS011;1359;51.798;12.174;2023-02-12T03:10:24;19.63;;;14.67;;
2698;SDS011;1359;51.798;12.174;2023-02-12T03:13:02;22.80;;;15.90;;
2698;SDS011;1359;51.798;12.174;2023-02-12T03:15:38;19.60;;;14.70;;
2698;SDS011;1359;51.798;12.174;2023-02-12T03:18:07;17.03;;;12.97;;
2698;SDS011;1359;51.798;12.174;2023-02-12T03:20:39;20.50;;;13.83;;
2698;SDS011;1359;51.798;12.174;2023-02-12T03:23:09;18.73;;;13.40;;
2698;SDS011;1359;51.798;12.174;2023-02-12T03:25:43;20.83;;;14.20;;
2698;SDS011;1359;51.798;12.174;2023-02-12T03:28:14;18.77;;;13.73;;
2698;SDS011;1359;51.798;12.174;2023-02-12T03:30:41;17.30;;;12.90;;
2698;SDS011;1359;51.798;12.174;2023-02-12T03:35:49;17.30;;;13.67;;
2698;SDS011;1359;51.798;12.174;2023-02-12T03:40:54;20.30;;;14.47;;
2698;SDS011;1359;51.798;12.174;2023-02-12T03:43:22;19.80;;;12.97;;
2698;SDS011;1359;51.798;12.174;2023-02-12T03:45:49;18.10;;;12.17;;
2698;SDS011;1359;51.798;12.174;2023-02-12T03:48:21;19.67;;;14.40;;
2698;SDS011;1359;51.798;12.174;2023-02-12T03:50:52;19.83;;;14.50;;
2698;SDS011;1359;51.798;12.174;2023-02-12T03:53:18;18.50;;;13.30;;
2698;SDS011;1359;51.798;12.174;2023-02-12T03:55:44;18.90;;;14.13;;
2698;SDS011;1359;51.798;12.174;2023-02-12T03:58:11;17.83;;;13.53;;
2698;SDS011;1359;51.798;12.174;2023-02-12T04:00:38;17.73;;;13.43;;
2698;SDS011;1359;51.798;12.174;2023-02-12T04:03:04;19.50;;;13.00;;
2698;SDS011;1359;51.798;12.174;2023-02-12T04:05:30;16.13;;;12.57;;
2698;SDS011;1359;51.798;12.174;2023-02-12T04:07:56;18.93;;;13.80;;
2698;SDS011;1359;51.798;12.174;2023-02-12T04:10:34;19.80;;;14.17;;
2698;SDS011;1359;51.798;12.174;2023-02-12T04:13:08;16.57;;;11.90;;
2698;SDS011;1359;51.798;12.174;2023-02-12T04:18:19;16.60;;;12.37;;
2698;SDS011;1359;51.798;12.174;2023-02-12T04:23:20;18.33;;;13.03;;
2698;SDS011;1359;51.798;12.174;2023-02-12T04:25:51;21.33;;;13.97;;
2698;SDS011;1359;51.798;12.174;2023-02-12T04:33:27;19.80;;;13.83;;
2698;SDS011;1359;51.798;12.174;2023-02-12T04:36:00;15.57;;;12.63;;
2698;SDS011;1359;51.798;12.174;2023-02-12T04:38:31;16.70;;;12.50;;
2698;SDS011;1359;51.798;12.174;2023-02-12T04:40:59;16.80;;;12.40;;
2698;SDS011;1359;51.798;12.174;2023-02-12T04:43:35;18.73;;;13.60;;
2698;SDS011;1359;51.798;12.174;2023-02-12T04:46:01;16.43;;;12.67;;
2698;SDS011;1359;51.798;12.174;2023-02-12T04:48:26;14.93;;;12.20;;
2698;SDS011;1359;51.798;12.174;2023-02-12T04:50:52;18.33;;;13.00;;
2698;SDS011;1359;51.798;12.174;2023-02-12T04:53:17;17.73;;;11.53;;
2698;SDS011;1359;51.798;12.174;2023-02-12T04:55:42;16.47;;;12.90;;
2698;SDS011;1359;51.798;12.174;2023-02-12T04:58:08;16.77;;;11.73;;
2698;SDS011;1359;51.798;12.174;2023-02-12T05:00:33;21.67;;;13.33;;
2698;SDS011;1359;51.798;12.174;2023-02-12T05:02:59;15.60;;;11.43;;
2698;SDS011;1359;51.798;12.174;2023-02-12T05:05:24;17.00;;;11.53;;
2698;SDS011;1359;51.798;12.174;2023-02-12T05:07:49;18.67;;;11.97;;
2698;SDS011;1359;51.798;12.174;2023-02-12T05:10:15;17.47;;;11.30;;
2698;SDS011;1359;51.798;12.174;2023-02-12T05:12:40;18.63;;;13.63;;
2698;SDS011;1359;51.798;12.174;2023-02-12T05:15:05;15.57;;;11.87;;
2698;SDS011;1359;51.798;12.174;2023-02-12T05:17:31;16.60;;;12.10;;
2698;SDS011;1359;51.798;12.174;2023-02-12T05:19:56;14.90;;;10.90;;
2698;SDS011;1359;51.798;12.174;2023-02-12T05:22:21;16.97;;;11.70;;
2698;SDS011;1359;51.798;12.174;2023-02-12T05:24:47;13.60;;;10.27;;
2698;SDS011;1359;51.798;12.174;2023-02-12T05:27:12;17.27;;;11.73;;
2698;SDS011;1359;51.798;12.174;2023-02-12T05:29:37;15.30;;;10.10;;
2698;SDS011;1359;51.798;12.174;2023-02-12T05:32:03;16.93;;;11.60;;
2698;SDS011;1359;51.798;12.174;2023-02-12T05:34:28;14.97;;;10.23;;
2698;SDS011;1359;51.798;12.174;2023-02-12T05:36:53;15.70;;;10.53;;
2698;SDS011;1359;51.798;12.174;2023-02-12T05:39:19;13.67;;;11.00;;
2698;SDS011;1359;51.798;12.174;2023-02-12T05:41:44;15.50;;;10.70;;
2698;SDS011;1359;51.798;12.174;2023-02-12T05:44:09;15.60;;;10.60;;
2698;SDS011;1359;51.798;12.174;2023-02-12T05:46:39;16.13;;;12.57;;
2698;SDS011;1359;51.798;12.174;2023-02-12T05:49:04;13.27;;;10.90;;
2698;SDS011;1359;51.798;12.174;2023-02-12T05:51:30;17.57;;;10.90;;
2698;SDS011;1359;51.798;12.174;2023-02-12T05:53:57;15.20;;;10.53;;
2698;SDS011;1359;51.798;12.174;2023-02-12T05:56:25;16.50;;;11.40;;
2698;SDS011;1359;51.798;12.174;2023-02-12T05:58:51;15.60;;;12.57;;
2698;SDS011;1359;51.798;12.174;2023-02-12T06:01:22;15.77;;;11.20;;
2698;SDS011;1359;51.798;12.174;2023-02-12T06:03:47;14.60;;;11.30;;
2698;SDS011;1359;51.798;12.174;2023-02-12T06:06:13;22.13;;;12.37;;
2698;SDS011;1359;51.798;12.174;2023-02-12T06:08:38;15.73;;;11.93;;
2698;SDS011;1359;51.798;12.174;2023-02-12T06:11:05;16.60;;;12.83;;
2698;SDS011;1359;51.798;12.174;2023-02-12T06:13:31;17.60;;;11.70;;
2698;SDS011;1359;51.798;12.174;2023-02-12T06:15:57;15.83;;;11.43;;
2698;SDS011;1359;51.798;12.174;2023-02-12T06:18:22;15.13;;;10.70;;
2698;SDS011;1359;51.798;12.174;2023-02-12T06:20:48;15.70;;;11.07;;
2698;SDS011;1359;51.798;12.174;2023-02-12T06:23:13;15.33;;;10.90;;
2698;SDS011;1359;51.798;12.174;2023-02-12T06:25:38;15.90;;;11.53;;
2698;SDS011;1359;51.798;12.174;2023-02-12T06:28:04;15.40;;;10.63;;
2698;SDS011;1359;51.798;12.174;2023-02-12T06:30:29;13.40;;;10.70;;
2698;SDS011;1359;51.798;12.174;2023-02-12T06:32:56;18.83;;;11.33;;
2698;SDS011;1359;51.798;12.174;2023-02-12T06:35:21;16.67;;;11.23;;
2698;SDS011;1359;51.798;12.174;2023-02-12T06:37:46;13.90;;;9.13;;
2698;SDS011;1359;51.798;12.174;2023-02-12T06:40:12;21.20;;;9.40;;
2698;SDS011;1359;51.798;12.174;2023-02-12T06:42:37;14.10;;;10.20;;
2698;SDS011;1359;51.798;12.174;2023-02-12T06:45:03;17.10;;;10.50;;
2698;SDS011;1359;51.798;12.174;2023-02-12T06:47:28;16.50;;;11.03;;
2698;SDS011;1359;51.798;12.174;2023-02-12T06:49:53;16.70;;;10.63;;
2698;SDS011;1359;51.798;12.174;2023-02-12T06:52:18;12.83;;;9.23;;
2698;SDS011;1359;51.798;12.174;2023-02-12T06:54:45;12.90;;;9.27;;
2698;SDS011;1359;51.798;12.174;2023-02-12T06:57:10;20.77;;;11.57;;
2698;SDS011;1359;51.798;12.174;2023-02-12T06:59:35;16.00;;;11.53;;
2698;SDS011;1359;51.798;12.174;2023-02-12T07:02:01;14.77;;;9.97;;
2698;SDS011;1359;51.798;12.174;2023-02-12T07:04:26;13.90;;;9.90;;
2698;SDS011;1359;51.798;12.174;2023-02-12T07:06:51;17.50;;;11.50;;
2698;SDS011;1359;51.798;12.174;2023-02-12T07:09:17;19.53;;;12.97;;
2698;SDS011;1359;51.798;12.174;2023-02-12T07:11:42;19.87;;;10.67;;
2698;SDS011;1359;51.798;12.174;2023-02-12T07:14:11;18.00;;;10.97;;
2698;SDS011;1359;51.798;12.174;2023-02-12T07:16:37;13.83;;;8.80;;
2698;SDS011;1359;51.798;12.174;2023-02-12T07:19:02;17.00;;;10.30;;
2698;SDS011;1359;51.798;12.174;2023-02-12T07:21:28;14.47;;;10.67;;
2698;SDS011;1359;51.798;12.174;2023-02-12T07:23:53;13.20;;;9.27;;
2698;SDS011;1359;51.798;12.174;2023-02-12T07:26:19;19.47;;;12.20;;
2698;SDS011;1359;51.798;12.174;2023-02-12T07:28:44;17.50;;;10.43;;
2698;SDS011;1359;51.798;12.174;2023-02-12T07:33:36;16.77;;;10.47;;
2698;SDS011;1359;51.798;12.174;2023-02-12T07:36:02;22.47;;;11.17;;
2698;SDS011;1359;51.798;12.174;2023-02-12T07:38:28;16.30;;;11.17;;
2698;SDS011;1359;51.798;12.174;2023-02-12T07:40:54;18.13;;;12.77;;
2698;SDS011;1359;51.798;12.174;2023-02-12T07:43:23;16.57;;;11.07;;
2698;SDS011;1359;51.798;12.174;2023-02-12T07:45:48;17.83;;;11.50;;
2698;SDS011;1359;51.798;12.174;2023-02-12T07:48:13;21.30;;;11.73;;
2698;SDS011;1359;51.798;12.174;2023-02-12T07:50:38;18.90;;;12.80;;
2698;SDS011;1359;51.798;12.174;2023-02-12T07:53:04;22.10;;;13.40;;
2698;SDS011;1359;51.798;12.174;2023-02-12T07:55:29;13.33;;;10.23;;
2698;SDS011;1359;51.798;12.174;2023-02-12T07:57:54;16.43;;;11.80;;
2698;SDS011;1359;51.798;12.174;2023-02-12T08:00:20;16.47;;;11.00;;
2698;SDS011;1359;51.798;12.174;2023-02-12T08:02:50;16.30;;;12.40;;
2698;SDS011;1359;51.798;12.174;2023-02-12T08:05:15;20.67;;;13.10;;
2698;SDS011;1359;51.798;12.174;2023-02-12T08:07:40;16.23;;;10.53;;
2698;SDS011;1359;51.798;12.174;2023-02-12T08:10:06;15.17;;;11.73;;
2698;SDS011;1359;51.798;12.174;2023-02-12T08:12:31;21.77;;;13.10;;
2698;SDS011;1359;51.798;12.174;2023-02-12T08:14:56;20.23;;;12.40;;
2698;SDS011;1359;51.798;12.174;2023-02-12T08:17:22;16.63;;;11.00;;
2698;SDS011;1359;51.798;12.174;2023-02-12T08:19:47;16.13;;;11.07;;
2698;SDS011;1359;51.798;12.174;2023-02-12T08:22:12;14.90;;;11.03;;
2698;SDS011;1359;51.798;12.174;2023-02-12T08:24:38;14.53;;;9.93;;
2698;SDS011;1359;51.798;12.174;2023-02-12T08:27:03;16.13;;;10.10;;
2698;SDS011;1359;51.798;12.174;2023-02-12T08:29:29;12.70;;;9.30;;
2698;SDS011;1359;51.798;12.174;2023-02-12T08:31:59;13.70;;;10.70;;
2698;SDS011;1359;51.798;12.174;2023-02-12T08:34:26;15.43;;;10.23;;
2698;SDS011;1359;51.798;12.174;2023-02-12T08:36:52;13.03;;;9.10;;
2698;SDS011;1359;51.798;12.174;2023-02-12T08:39:20;18.00;;;10.97;;
2698;SDS011;1359;51.798;12.174;2023-02-12T08:41:46;11.03;;;9.17;;
2698;SDS011;1359;51.798;12.174;2023-02-12T08:44:12;14.27;;;10.63;;
2698;SDS011;1359;51.798;12.174;2023-02-12T08:46:39;13.90;;;10.90;;
2698;SDS011;1359;51.798;12.174;2023-02-12T08:49:09;16.90;;;9.83;;
2698;SDS011;1359;51.798;12.174;2023-02-12T08:51:35;14.40;;;10.23;;
2698;SDS011;1359;51.798;12.174;2023-02-12T08:54:03;15.07;;;9.80;;
2698;SDS011;1359;51.798;12.174;2023-02-12T08:56:29;12.30;;;8.77;;
2698;SDS011;1359;51.798;12.174;2023-02-12T08:58:58;23.50;;;10.90;;
2698;SDS011;1359;51.798;12.174;2023-02-12T09:01:24;14.20;;;10.50;;
2698;SDS011;1359;51.798;12.174;2023-02-12T09:03:50;20.90;;;10.47;;
2698;SDS011;1359;51.798;12.174;2023-02-12T09:06:16;14.37;;;10.80;;
2698;SDS011;1359;51.798;12.174;2023-02-12T09:08:42;18.23;;;10.90;;
2698;SDS011;1359;51.798;12.174;2023-02-12T09:11:09;14.70;;;11.00;;
2698;SDS011;1359;51.798;12.174;2023-02-12T09:13:35;17.43;;;11.43;;
2698;SDS011;1359;51.798;12.174;2023-02-12T09:16:01;16.27;;;10.97;;
2698;SDS011;1359;51.798;12.174;2023-02-12T09:18:26;15.63;;;10.37;;
2698;SDS011;1359;51.798;12.174;2023-02-12T09:20:52;17.13;;;10.47;;
2698;SDS011;1359;51.798;12.174;2023-02-12T09:23:17;16.23;;;11.77;;
2698;SDS011;1359;51.798;12.174;2023-02-12T09:25:43;16.40;;;11.17;;
2698;SDS011;1359;51.798;12.174;2023-02-12T09:28:09;18.50;;;9.67;;
2698;SDS011;1359;51.798;12.174;2023-02-12T09:30:37;16.60;;;9.97;;
2698;SDS011;1359;51.798;12.174;2023-02-12T09:33:03;16.80;;;9.90;;
2698;SDS011;1359;51.798;12.174;2023-02-12T09:35:29;16.30;;;9.83;;
2698;SDS011;1359;51.798;12.174;2023-02-12T09:37:54;17.00;;;9.70;;
2698;SDS011;1359;51.798;12.174;2023-02-12T09:40:21;14.30;;;10.30;;
2698;SDS011;1359;51.798;12.174;2023-02-12T09:43:00;18.03;;;10.87;;
2698;SDS011;1359;51.798;12.174;2023-02-12T09:45:35;19.83;;;10.97;;
2698;SDS011;1359;51.798;12.174;2023-02-12T09:53:04;23.57;;;11.67;;
2698;SDS011;1359;51.798;12.174;2023-02-12T09:55:30;17.50;;;12.17;;
2698;SDS011;1359;51.798;12.174;2023-02-12T09:57:57;16.50;;;10.27;;
2698;SDS011;1359;51.798;12.174;2023-02-12T10:00:24;18.17;;;11.20;;
2698;SDS011;1359;51.798;12.174;2023-02-12T10:02:52;13.70;;;8.70;;
2698;SDS011;1359;51.798;12.174;2023-02-12T10:05:40;14.67;;;10.33;;
2698;SDS011;1359;51.798;12.174;2023-02-12T10:08:07;16.40;;;9.67;;
2698;SDS011;1359;51.798;12.174;2023-02-12T10:10:38;15.30;;;10.00;;
2698;SDS011;1359;51.798;12.174;2023-02-12T10:15:46;18.43;;;10.73;;
2698;SDS011;1359;51.798;12.174;2023-02-12T10:18:19;14.73;;;10.60;;
2698;SDS011;1359;51.798;12.174;2023-02-12T10:21:08;15.20;;;9.77;;
2698;SDS011;1359;51.798;12.174;2023-02-12T10:26:19;19.97;;;9.77;;
2698;SDS011;1359;51.798;12.174;2023-02-12T10:28:46;14.67;;;7.80;;
2698;SDS011;1359;51.798;12.174;2023-02-12T10:31:16;12.70;;;9.30;;
2698;SDS011;1359;51.798;12.174;2023-02-12T10:33:47;16.13;;;8.00;;
2698;SDS011;1359;51.798;12.174;2023-02-12T10:36:24;14.43;;;8.70;;
2698;SDS011;1359;51.798;12.174;2023-02-12T10:38:56;10.73;;;7.50;;
2698;SDS011;1359;51.798;12.174;2023-02-12T10:41:23;12.40;;;7.73;;
2698;SDS011;1359;51.798;12.174;2023-02-12T10:43:49;11.37;;;7.23;;
2698;SDS011;1359;51.798;12.174;2023-02-12T10:46:15;13.63;;;9.00;;
2698;SDS011;1359;51.798;12.174;2023-02-12T10:48:41;20.97;;;8.13;;
2698;SDS011;1359;51.798;12.174;2023-02-12T10:56:07;13.40;;;7.90;;
2698;SDS011;1359;51.798;12.174;2023-02-12T10:58:34;17.20;;;9.43;;
2698;SDS011;1359;51.798;12.174;2023-02-12T11:01:00;12.10;;;7.67;;
2698;SDS011;1359;51.798;12.174;2023-02-12T11:03:29;10.97;;;8.20;;
2698;SDS011;1359;51.798;12.174;2023-02-12T11:05:54;12.60;;;8.43;;
2698;SDS011;1359;51.798;12.174;2023-02-12T11:10:51;11.87;;;8.50;;
2698;SDS011;1359;51.798;12.174;2023-02-12T11:13:26;14.27;;;8.70;;
2698;SDS011;1359;51.798;12.174;2023-02-12T11:15:52;12.63;;;8.10;;
2698;SDS011;1359;51.798;12.174;2023-02-12T11:18:22;12.53;;;8.00;;
2698;SDS011;1359;51.798;12.174;2023-02-12T11:20:54;12.53;;;8.17;;
2698;SDS011;1359;51.798;12.174;2023-02-12T11:23:30;14.20;;;8.27;;
2698;SDS011;1359;51.798;12.174;2023-02-12T11:25:58;14.07;;;9.20;;
2698;SDS011;1359;51.798;12.174;2023-02-12T11:28:23;14.30;;;8.27;;
2698;SDS011;1359;51.798;12.174;2023-02-12T11:35:49;13.87;;;8.70;;
2698;SDS011;1359;51.798;12.174;2023-02-12T11:38:17;7.40;;;6.07;;
2698;SDS011;1359;51.798;12.174;2023-02-12T11:40:44;10.90;;;7.53;;
2698;SDS011;1359;51.798;12.174;2023-02-12T11:43:13;9.47;;;6.70;;
2698;SDS011;1359;51.798;12.174;2023-02-12T11:45:42;10.37;;;6.97;;
2698;SDS011;1359;51.798;12.174;2023-02-12T11:48:45;8.60;;;5.30;;
2698;SDS011;1359;51.798;12.174;2023-02-12T11:51:04;9.60;;;5.73;;
2698;SDS011;1359;51.798;12.174;2023-02-12T11:55:59;7.20;;;4.93;;
2698;SDS011;1359;51.798;12.174;2023-02-12T11:58:25;6.90;;;5.43;;
2698;SDS011;1359;51.798;12.174;2023-02-12T12:01:02;5.50;;;4.53;;
2698;SDS011;1359;51.798;12.174;2023-02-12T12:05:55;8.67;;;5.60;;
2698;SDS011;1359;51.798;12.174;2023-02-12T12:11:15;9.30;;;6.33;;
2698;SDS011;1359;51.798;12.174;2023-02-12T12:13:44;8.10;;;6.20;;
2698;SDS011;1359;51.798;12.174;2023-02-12T12:16:12;12.27;;;6.70;;
2698;SDS011;1359;51.798;12.174;2023-02-12T12:18:58;9.77;;;6.03;;
2698;SDS011;1359;51.798;12.174;2023-02-12T12:21:46;13.30;;;6.67;;
2698;SDS011;1359;51.798;12.174;2023-02-12T12:26:38;9.70;;;5.53;;
2698;SDS011;1359;51.798;12.174;2023-02-12T12:29:21;9.07;;;6.40;;
2698;SDS011;1359;51.798;12.174;2023-02-12T12:31:49;10.20;;;5.40;;
2698;SDS011;1359;51.798;12.174;2023-02-12T12:34:23;10.70;;;6.13;;
2698;SDS011;1359;51.798;12.174;2023-02-12T12:47:50;8.10;;;5.80;;
2698;SDS011;1359;51.798;12.174;2023-02-12T12:55:51;15.17;;;6.73;;
2698;SDS011;1359;51.798;12.174;2023-02-12T12:58:23;10.07;;;5.30;;
2698;SDS011;1359;51.798;12.174;2023-02-12T13:01:16;8.67;;;5.30;;
2698;SDS011;1359;51.798;12.174;2023-02-12T13:03:58;11.57;;;4.60;;
2698;SDS011;1359;51.798;12.174;2023-02-12T13:09:10;10.63;;;5.70;;
2698;SDS011;1359;51.798;12.174;2023-02-12T13:14:06;10.13;;;6.27;;
2698;SDS011;1359;51.798;12.174;2023-02-12T13:16:39;10.37;;;6.67;;
2698;SDS011;1359;51.798;12.174;2023-02-12T13:19:14;8.90;;;5.30;;
2698;SDS011;1359;51.798;12.174;2023-02-12T13:21:45;11.40;;;6.17;;
2698;SDS011;1359;51.798;12.174;2023-02-12T13:26:50;10.03;;;7.00;;
2698;SDS011;1359;51.798;12.174;2023-02-12T13:29:18;8.40;;;5.90;;
2698;SDS011;1359;51.798;12.174;2023-02-12T13:31:47;11.40;;;5.73;;
2698;SDS011;1359;51.798;12.174;2023-02-12T13:34:13;9.33;;;6.07;;
2698;SDS011;1359;51.798;12.174;2023-02-12T13:36:40;8.13;;;5.83;;
2698;SDS011;1359;51.798;12.174;2023-02-12T13:39:09;11.10;;;6.10;;
2698;SDS011;1359;51.798;12.174;2023-02-12T13:41:39;11.43;;;7.20;;
2698;SDS011;1359;51.798;12.174;2023-02-12T13:47:24;10.90;;;6.43;;
2698;SDS011;1359;51.798;12.174;2023-02-12T13:52:16;9.83;;;6.77;;
2698;SDS011;1359;51.798;12.174;2023-02-12T13:54:46;8.93;;;7.07;;
2698;SDS011;1359;51.798;12.174;2023-02-12T13:57:14;10.77;;;7.33;;
2698;SDS011;1359;51.798;12.174;2023-02-12T13:59:41;9.47;;;6.70;;
2698;SDS011;1359;51.798;12.174;2023-02-12T14:02:23;9.00;;;6.97;;
2698;SDS011;1359;51.798;12.174;2023-02-12T14:07:18;8.60;;;6.67;;
2698;SDS011;1359;51.798;12.174;2023-02-12T14:09:45;8.30;;;6.60;;
2698;SDS011;1359;51.798;12.174;2023-02-12T14:12:12;12.53;;;7.53;;
2698;SDS011;1359;51.798;12.174;2023-02-12T14:14:47;8.20;;;6.20;;
2698;SDS011;1359;51.798;12.174;2023-02-12T14:27:35;8.27;;;7.00;;
2698;SDS011;1359;51.798;12.174;2023-02-12T14:37:55;11.37;;;5.80;;
2698;SDS011;1359;51.798;12.174;2023-02-12T14:42:59;7.20;;;5.83;;
2698;SDS011;1359;51.798;12.174;2023-02-12T14:45:26;11.03;;;7.67;;
2698;SDS011;1359;51.798;12.174;2023-02-12T14:47:52;10.27;;;7.00;;
2698;SDS011;1359;51.798;12.174;2023-02-12T14:50:19;10.20;;;5.90;;
2698;SDS011;1359;51.798;12.174;2023-02-12T14:52:51;6.30;;;5.67;;
2698;SDS011;1359;51.798;12.174;2023-02-12T14:55:27;8.13;;;6.30;;
2698;SDS011;1359;51.798;12.174;2023-02-12T14:57:55;11.70;;;8.60;;
2698;SDS011;1359;51.798;12.174;2023-02-12T15:00:26;9.23;;;6.07;;
2698;SDS011;1359;51.798;12.174;2023-02-12T15:05:37;7.47;;;5.23;;
2698;SDS011;1359;51.798;12.174;2023-02-12T15:08:14;8.93;;;6.53;;
2698;SDS011;1359;51.798;12.174;2023-02-12T15:10:46;11.00;;;7.67;;
2698;SDS011;1359;51.798;12.174;2023-02-12T15:16:05;7.87;;;6.23;;
2698;SDS011;1359;51.798;12.174;2023-02-12T15:21:26;7.53;;;6.17;;
2698;SDS011;1359;51.798;12.174;2023-02-12T15:26:33;10.73;;;6.77;;
2698;SDS011;1359;51.798;12.174;2023-02-12T15:29:00;8.60;;;6.33;;
2698;SDS011;1359;51.798;12.174;2023-02-12T15:31:27;7.57;;;6.50;;
2698;SDS011;1359;51.798;12.174;2023-02-12T15:33:55;10.13;;;8.40;;
2698;SDS011;1359;51.798;12.174;2023-02-12T15:36:22;11.40;;;8.00;;
2698;SDS011;1359;51.798;12.174;2023-02-12T15:38:50;12.97;;;9.03;;
2698;SDS011;1359;51.798;12.174;2023-02-12T15:41:23;11.13;;;7.70;;
2698;SDS011;1359;51.798;12.174;2023-02-12T15:43:49;11.33;;;8.43;;
2698;SDS011;1359;51.798;12.174;2023-02-12T15:46:16;11.70;;;8.33;;
2698;SDS011;1359;51.798;12.174;2023-02-12T15:48:42;12.43;;;8.70;;
2698;SDS011;1359;51.798;12.174;2023-02-12T15:51:09;16.90;;;11.93;;
2698;SDS011;1359;51.798;12.174;2023-02-12T15:53:38;13.30;;;9.00;;
2698;SDS011;1359;51.798;12.174;2023-02-12T15:56:04;12.80;;;8.87;;
2698;SDS011;1359;51.798;12.174;2023-02-12T15:58:41;15.93;;;9.80;;
2698;SDS011;1359;51.798;12.174;2023-02-12T16:01:07;11.40;;;9.23;;
2698;SDS011;1359;51.798;12.174;2023-02-12T16:03:33;113.87;;;52.97;;
2698;SDS011;1359;51.798;12.174;2023-02-12T16:06:12;99.93;;;53.50;;
2698;SDS011;1359;51.798;12.174;2023-02-12T16:08:39;41.70;;;23.57;;
2698;SDS011;1359;51.798;12.174;2023-02-12T16:11:06;26.43;;;17.23;;
2698;SDS011;1359;51.798;12.174;2023-02-12T16:13:48;125.83;;;72.77;;
2698;SDS011;1359;51.798;12.174;2023-02-12T16:16:17;91.70;;;53.30;;
2698;SDS011;1359;51.798;12.174;2023-02-12T16:18:42;34.90;;;25.33;;
2698;SDS011;1359;51.798;12.174;2023-02-12T16:21:12;41.13;;;28.57;;
2698;SDS011;1359;51.798;12.174;2023-02-12T16:23:43;39.27;;;27.20;;
2698;SDS011;1359;51.798;12.174;2023-02-12T16:26:14;43.47;;;28.77;;
2698;SDS011;1359;51.798;12.174;2023-02-12T16:28:40;37.90;;;26.83;;
2698;SDS011;1359;51.798;12.174;2023-02-12T16:31:10;25.83;;;17.10;;
2698;SDS011;1359;51.798;12.174;2023-02-12T16:36:06;21.50;;;14.47;;
2698;SDS011;1359;51.798;12.174;2023-02-12T16:38:39;15.67;;;12.73;;
2698;SDS011;1359;51.798;12.174;2023-02-12T16:41:18;17.50;;;11.73;;
2698;SDS011;1359;51.798;12.174;2023-02-12T16:43:45;13.87;;;10.77;;
2698;SDS011;1359;51.798;12.174;2023-02-12T16:46:11;14.60;;;10.47;;
2698;SDS011;1359;51.798;12.174;2023-02-12T16:48:46;15.67;;;9.50;;
2698;SDS011;1359;51.798;12.174;2023-02-12T16:51:25;16.50;;;10.83;;
2698;SDS011;1359;51.798;12.174;2023-02-12T16:53:52;21.97;;;11.97;;
2698;SDS011;1359;51.798;12.174;2023-02-12T16:56:19;14.83;;;10.87;;
2698;SDS011;1359;51.798;12.174;2023-02-12T16:58:46;13.60;;;9.50;;